createdAt,value
2018-08-03T00:01:40.826Z,10.60
2018-08-03T00:04:09.605Z,11.67
2018-08-03T00:06:38.387Z,11.40
2018-08-03T00:09:09.546Z,11.50
2018-08-03T00:11:38.441Z,11.07
2018-08-03T00:14:07.336Z,10.87
2018-08-03T00:16:36.066Z,11.57
2018-08-03T00:19:04.955Z,11.03
2018-08-03T00:21:34.098Z,10.97
2018-08-03T00:24:02.826Z,11.43
2018-08-03T00:26:31.602Z,10.83
2018-08-03T00:29:00.466Z,10.93
2018-08-03T00:31:29.232Z,11.57
2018-08-03T00:33:58.006Z,10.57
2018-08-03T00:36:26.821Z,10.90
2018-08-03T00:38:55.689Z,10.77
2018-08-03T00:41:24.454Z,11.37
2018-08-03T00:43:53.259Z,10.83
2018-08-03T00:46:22.027Z,13.07
2018-08-03T00:48:50.763Z,12.80
2018-08-03T00:51:19.575Z,13.23
2018-08-03T00:53:48.325Z,13.10
2018-08-03T00:56:17.098Z,13.27
2018-08-03T00:58:45.807Z,11.80
2018-08-03T01:01:14.570Z,11.57
2018-08-03T01:03:43.309Z,12.10
2018-08-03T01:06:12.053Z,11.83
2018-08-03T01:08:40.810Z,10.73
2018-08-03T01:11:09.604Z,11.40
2018-08-03T01:13:38.737Z,10.77
2018-08-03T01:16:07.493Z,10.67
2018-08-03T01:18:36.278Z,10.80
2018-08-03T01:21:05.068Z,11.97
2018-08-03T01:23:34.249Z,11.07
2018-08-03T01:26:03.150Z,12.03
2018-08-03T01:28:31.929Z,12.07
2018-08-03T01:31:00.842Z,11.30
2018-08-03T01:33:29.602Z,11.80
2018-08-03T01:35:58.357Z,10.90
2018-08-03T01:38:27.158Z,11.00
2018-08-03T01:40:56.284Z,11.93
2018-08-03T01:43:25.109Z,11.27
2018-08-03T01:45:53.843Z,10.70
2018-08-03T01:48:22.635Z,12.33
2018-08-03T01:50:51.476Z,11.10
2018-08-03T01:53:20.243Z,10.93
2018-08-03T01:55:49.001Z,11.13
2018-08-03T01:58:17.762Z,10.87
2018-08-03T02:00:46.569Z,11.43
2018-08-03T02:03:15.371Z,11.40
2018-08-03T02:05:44.318Z,11.03
2018-08-03T02:08:13.277Z,11.83
2018-08-03T02:10:42.096Z,11.10
2018-08-03T02:13:10.835Z,10.73
2018-08-03T02:15:39.612Z,11.87
2018-08-03T02:18:08.468Z,10.27
2018-08-03T02:20:37.328Z,11.10
2018-08-03T02:23:06.079Z,10.43
2018-08-03T02:25:34.870Z,9.90
2018-08-03T02:28:03.695Z,10.60
2018-08-03T02:30:32.626Z,9.93
2018-08-03T02:33:01.480Z,10.40
2018-08-03T02:35:30.224Z,10.10
2018-08-03T02:37:58.998Z,10.23
2018-08-03T02:40:27.765Z,10.43
2018-08-03T02:42:56.871Z,10.90
2018-08-03T02:45:25.738Z,10.17
2018-08-03T02:47:54.517Z,10.53
2018-08-03T02:50:23.306Z,10.17
2018-08-03T02:52:52.120Z,10.33
2018-08-03T02:55:20.931Z,10.07
2018-08-03T02:57:49.755Z,10.13
2018-08-03T03:00:18.675Z,10.37
2018-08-03T03:02:47.530Z,10.00
2018-08-03T03:05:16.428Z,10.40
2018-08-03T03:07:45.227Z,11.67
2018-08-03T03:10:14.017Z,10.53
2018-08-03T03:12:42.811Z,10.50
2018-08-03T03:15:11.640Z,10.83
2018-08-03T03:17:40.383Z,10.83
2018-08-03T03:20:09.166Z,11.43
2018-08-03T03:22:37.946Z,12.07
2018-08-03T03:25:07.056Z,11.40
2018-08-03T03:27:35.838Z,11.90
2018-08-03T03:30:05.523Z,11.47
2018-08-03T03:32:34.409Z,10.70
2018-08-03T03:35:03.370Z,11.27
2018-08-03T03:37:32.168Z,11.37
2018-08-03T03:40:00.947Z,11.97
2018-08-03T03:42:29.718Z,10.60
2018-08-03T03:44:58.456Z,11.10
2018-08-03T03:47:27.248Z,10.90
2018-08-03T03:49:55.981Z,11.47
2018-08-03T03:52:24.769Z,11.47
2018-08-03T03:54:53.653Z,11.70
2018-08-03T03:57:22.789Z,10.80
2018-08-03T03:59:51.584Z,11.20
2018-08-03T04:02:20.355Z,11.30
2018-08-03T04:04:49.145Z,11.33
2018-08-03T04:07:17.950Z,11.07
2018-08-03T04:09:46.730Z,12.40
2018-08-03T04:12:15.530Z,12.53
2018-08-03T04:14:44.355Z,11.70
2018-08-03T04:17:13.171Z,13.07
2018-08-03T04:19:41.957Z,11.93
2018-08-03T04:22:10.753Z,14.27
2018-08-03T04:24:39.510Z,13.90
2018-08-03T04:27:08.299Z,14.13
2018-08-03T04:29:37.070Z,15.17
2018-08-03T04:32:05.878Z,14.23
2018-08-03T04:34:34.717Z,14.50
2018-08-03T04:37:03.490Z,14.87
2018-08-03T04:39:32.313Z,16.63
2018-08-03T04:42:01.123Z,16.93
2018-08-03T04:44:29.961Z,15.60
2018-08-03T04:46:58.715Z,14.90
2018-08-03T04:49:27.511Z,15.90
2018-08-03T04:51:56.302Z,14.23
2018-08-03T04:54:25.127Z,14.53
2018-08-03T04:56:53.886Z,13.37
2018-08-03T04:59:22.667Z,11.67
2018-08-03T05:01:51.497Z,12.57
2018-08-03T05:04:20.342Z,12.47
2018-08-03T05:06:49.148Z,14.13
2018-08-03T05:09:17.966Z,12.93
2018-08-03T05:11:46.779Z,12.63
2018-08-03T05:14:15.487Z,13.93
2018-08-03T05:16:44.284Z,13.73
2018-08-03T05:19:13.026Z,13.30
2018-08-03T05:21:41.814Z,15.00
2018-08-03T05:24:10.596Z,18.90
2018-08-03T05:26:39.518Z,18.90
2018-08-03T05:29:08.350Z,20.03
2018-08-03T05:31:37.126Z,20.03
2018-08-03T05:34:06.299Z,21.57
2018-08-03T05:36:35.103Z,21.70
2018-08-03T05:39:04.240Z,20.63
2018-08-03T05:41:32.963Z,19.50
2018-08-03T05:44:01.882Z,20.40
2018-08-03T05:46:30.841Z,14.73
2018-08-03T05:48:59.623Z,12.07
2018-08-03T05:51:28.479Z,12.90
2018-08-03T05:53:57.249Z,12.83
2018-08-03T05:56:26.170Z,10.23
2018-08-03T05:58:55.327Z,11.97
2018-08-03T06:01:24.204Z,10.50
2018-08-03T06:03:53.228Z,10.03
2018-08-03T06:06:22.059Z,10.00
2018-08-03T06:08:50.829Z,9.73
2018-08-03T06:11:19.615Z,10.07
2018-08-03T06:13:48.381Z,9.07
2018-08-03T06:16:17.417Z,9.00
2018-08-03T06:18:46.234Z,8.87
2018-08-03T06:21:15.446Z,8.57
2018-08-03T06:23:44.299Z,9.67
2018-08-03T06:26:13.189Z,8.60
2018-08-03T06:28:41.940Z,8.27
2018-08-03T06:31:10.778Z,9.60
2018-08-03T06:33:39.553Z,7.83
2018-08-03T06:36:08.313Z,8.63
2018-08-03T06:38:37.082Z,8.53
2018-08-03T06:41:05.866Z,9.40
2018-08-03T06:43:34.651Z,10.13
2018-08-03T06:46:03.479Z,8.83
2018-08-03T06:48:32.294Z,9.10
2018-08-03T06:51:01.201Z,8.93
2018-08-03T06:53:29.937Z,9.10
2018-08-03T06:55:58.758Z,8.67
2018-08-03T06:58:27.622Z,9.10
2018-08-03T07:00:57.792Z,8.80
2018-08-03T07:03:26.635Z,9.20
2018-08-03T07:05:55.566Z,10.00
2018-08-03T07:08:24.390Z,10.20
2018-08-03T07:10:53.330Z,9.13
2018-08-03T07:13:22.141Z,9.67
2018-08-03T07:15:50.926Z,9.77
2018-08-03T07:18:19.781Z,9.20
2018-08-03T07:20:49.428Z,9.10
2018-08-03T07:23:18.323Z,9.03
2018-08-03T07:25:47.198Z,10.03
2018-08-03T07:28:16.221Z,9.07
2018-08-03T07:30:45.127Z,8.63
2018-08-03T07:33:13.917Z,9.30
2018-08-03T07:35:42.766Z,9.17
2018-08-03T07:38:11.568Z,9.77
2018-08-03T07:40:40.762Z,10.20
2018-08-03T07:43:09.683Z,10.07
2018-08-03T07:45:38.579Z,9.90
2018-08-03T07:48:08.122Z,9.57
2018-08-03T07:50:36.850Z,8.97
2018-08-03T07:53:05.665Z,9.97
2018-08-03T07:55:34.425Z,9.40
2018-08-03T07:58:03.576Z,12.03
2018-08-03T08:00:32.371Z,8.27
2018-08-03T08:03:01.163Z,8.83
2018-08-03T08:05:29.887Z,8.17
2018-08-03T08:07:58.735Z,8.40
2018-08-03T08:10:27.465Z,8.63
2018-08-03T08:12:56.238Z,8.30
2018-08-03T08:15:25.202Z,7.53
2018-08-03T08:17:53.923Z,8.43
2018-08-03T08:20:22.742Z,8.37
2018-08-03T08:22:51.643Z,8.50
2018-08-03T08:25:20.882Z,7.80
2018-08-03T08:27:49.622Z,7.80
2018-08-03T08:30:18.547Z,7.93
2018-08-03T08:32:47.338Z,7.23
2018-08-03T08:35:16.131Z,7.63
2018-08-03T08:37:44.916Z,7.50
2018-08-03T08:40:13.679Z,7.53
2018-08-03T08:42:42.482Z,8.43
2018-08-03T08:45:11.341Z,7.40
2018-08-03T08:47:40.284Z,7.87
2018-08-03T08:50:09.675Z,7.70
2018-08-03T08:52:38.491Z,7.23
2018-08-03T08:55:07.289Z,7.77
2018-08-03T08:57:36.036Z,7.20
2018-08-03T09:00:06.553Z,6.43
2018-08-03T09:02:35.419Z,7.27
2018-08-03T09:05:04.359Z,6.47
2018-08-03T09:07:33.268Z,6.53
2018-08-03T09:10:02.207Z,6.47
2018-08-03T09:12:31.052Z,7.60
2018-08-03T09:14:59.809Z,7.50
2018-08-03T09:17:28.597Z,7.13
2018-08-03T09:19:57.338Z,8.53
2018-08-03T09:22:26.153Z,7.57
2018-08-03T09:24:55.490Z,7.37
2018-08-03T09:27:24.707Z,7.47
2018-08-03T09:29:53.508Z,6.53
2018-08-03T09:32:22.372Z,7.50
2018-08-03T09:34:51.237Z,6.50
2018-08-03T09:37:20.006Z,6.13
2018-08-03T09:39:48.778Z,6.57
2018-08-03T09:42:17.639Z,6.40
2018-08-03T09:44:46.515Z,7.07
2018-08-03T09:47:15.334Z,6.67
2018-08-03T09:49:44.119Z,6.17
2018-08-03T09:52:12.914Z,6.43
2018-08-03T09:54:41.687Z,6.70
2018-08-03T09:57:10.478Z,6.20
2018-08-03T09:59:39.231Z,6.30
2018-08-03T10:02:08.545Z,6.53
2018-08-03T10:04:37.326Z,6.23
2018-08-03T10:07:06.077Z,6.73
2018-08-03T10:09:34.958Z,5.73
2018-08-03T10:12:03.810Z,5.97
2018-08-03T10:14:32.922Z,6.30
2018-08-03T10:17:02.047Z,6.57
2018-08-03T10:19:30.788Z,6.60
2018-08-03T10:21:59.595Z,6.03
2018-08-03T10:24:28.587Z,5.87
2018-08-03T10:26:57.505Z,6.03
2018-08-03T10:29:26.294Z,5.83
2018-08-03T10:31:54.997Z,5.83
2018-08-03T10:34:23.786Z,6.23
2018-08-03T10:36:52.987Z,5.67
2018-08-03T10:39:21.742Z,5.60
2018-08-03T10:41:50.509Z,6.17
2018-08-03T10:44:19.388Z,6.07
2018-08-03T10:46:48.112Z,5.87
2018-08-03T10:49:16.933Z,6.10
2018-08-03T10:51:46.121Z,5.93
2018-08-03T10:54:15.025Z,6.50
2018-08-03T10:56:43.807Z,5.87
2018-08-03T10:59:12.671Z,6.07
2018-08-03T11:01:41.587Z,5.93
2018-08-03T11:04:10.524Z,6.03
2018-08-03T11:06:39.351Z,6.17
2018-08-03T11:09:09.067Z,6.70
2018-08-03T11:11:37.932Z,5.83
2018-08-03T11:14:07.523Z,5.73
2018-08-03T11:16:36.324Z,6.03
2018-08-03T11:19:10.129Z,6.00
2018-08-03T11:21:38.891Z,6.30
2018-08-03T11:24:07.800Z,6.10
2018-08-03T11:26:36.773Z,6.00
2018-08-03T11:29:05.973Z,6.23
2018-08-03T11:31:34.731Z,6.33
2018-08-03T11:34:03.543Z,6.10
2018-08-03T11:36:32.374Z,6.50
2018-08-03T11:39:01.186Z,6.33
2018-08-03T11:41:29.982Z,6.17
2018-08-03T11:43:59.101Z,5.97
2018-08-03T11:46:27.962Z,6.20
2018-08-03T11:48:56.759Z,6.70
2018-08-03T11:51:25.565Z,6.80
2018-08-03T11:53:54.425Z,6.57
2018-08-03T11:56:23.403Z,6.87
2018-08-03T11:58:52.481Z,5.90
2018-08-03T12:01:21.221Z,6.40
2018-08-03T12:03:50.042Z,6.77
2018-08-03T12:06:18.828Z,6.87
2018-08-03T12:08:47.616Z,6.33
2018-08-03T12:11:16.442Z,6.93
2018-08-03T12:13:45.222Z,6.60
2018-08-03T12:16:13.996Z,7.17
2018-08-03T12:18:42.742Z,6.67
2018-08-03T12:21:11.538Z,6.70
2018-08-03T12:23:40.363Z,6.67
2018-08-03T12:26:09.176Z,6.23
2018-08-03T12:28:37.984Z,6.77
2018-08-03T12:31:06.957Z,6.77
2018-08-03T12:33:35.889Z,7.07
2018-08-03T12:36:04.815Z,6.83
2018-08-03T12:38:33.684Z,6.97
2018-08-03T12:41:02.838Z,6.37
2018-08-03T12:43:31.630Z,6.03
2018-08-03T12:46:00.551Z,7.00
2018-08-03T12:48:29.471Z,6.77
2018-08-03T12:50:58.293Z,6.70
2018-08-03T12:53:27.085Z,6.93
2018-08-03T12:55:55.982Z,6.70
2018-08-03T12:58:24.910Z,7.13
2018-08-03T13:06:04.002Z,6.60
2018-08-03T13:08:32.879Z,6.90
2018-08-03T13:11:01.766Z,6.63
2018-08-03T13:13:30.566Z,6.60
2018-08-03T13:15:59.470Z,7.10
2018-08-03T13:18:28.296Z,7.10
2018-08-03T13:20:57.489Z,7.20
2018-08-03T13:23:26.275Z,7.50
2018-08-03T13:25:55.082Z,6.60
2018-08-03T13:28:24.323Z,6.53
2018-08-03T13:30:53.192Z,6.97
2018-08-03T13:33:22.006Z,6.80
2018-08-03T13:35:50.826Z,6.53
2018-08-03T13:38:19.649Z,6.77
2018-08-03T13:40:48.503Z,7.00
2018-08-03T13:43:17.417Z,7.30
2018-08-03T13:45:46.292Z,6.97
2018-08-03T13:48:15.146Z,7.80
2018-08-03T13:51:01.200Z,7.20
2018-08-03T13:53:32.882Z,7.30
2018-08-03T13:56:02.494Z,7.00
2018-08-03T13:58:31.391Z,6.97
2018-08-03T14:01:19.492Z,7.00
2018-08-03T14:03:48.369Z,6.97
2018-08-03T14:06:17.180Z,6.83
2018-08-03T14:08:49.110Z,6.87
2018-08-03T14:11:18.632Z,7.50
2018-08-03T14:13:47.714Z,7.93
2018-08-03T14:16:16.646Z,6.83
2018-08-03T14:18:46.605Z,7.27
2018-08-03T14:21:15.580Z,7.37
2018-08-03T14:23:44.810Z,7.07
2018-08-03T14:26:13.702Z,7.43
2018-08-03T14:28:42.508Z,7.17
2018-08-03T14:31:11.277Z,7.63
2018-08-03T14:33:40.136Z,7.10
2018-08-03T14:36:09.091Z,6.93
2018-08-03T14:38:37.946Z,7.33
2018-08-03T14:41:08.492Z,7.17
2018-08-03T14:43:38.233Z,7.50
2018-08-03T14:46:07.423Z,7.50
2018-08-03T14:48:37.722Z,7.53
2018-08-03T14:51:07.530Z,8.00
2018-08-03T14:53:36.439Z,7.03
2018-08-03T14:56:05.486Z,7.90
2018-08-03T14:58:34.246Z,6.97
2018-08-03T15:01:03.013Z,7.37
2018-08-03T15:03:31.736Z,7.23
2018-08-03T15:06:00.521Z,7.80
2018-08-03T15:08:29.533Z,6.87
2018-08-03T15:10:59.121Z,7.50
2018-08-03T15:13:28.080Z,7.53
2018-08-03T15:15:56.871Z,7.00
2018-08-03T15:18:26.421Z,7.37
2018-08-03T15:20:55.270Z,7.87
2018-08-03T15:23:24.148Z,7.53
2018-08-03T15:25:53.022Z,7.97
2018-08-03T15:28:21.836Z,8.03
2018-08-03T15:30:50.677Z,8.03
2018-08-03T15:33:19.410Z,7.63
2018-08-03T15:35:48.177Z,8.13
2018-08-03T15:38:16.949Z,7.83
2018-08-03T15:40:46.121Z,8.07
2018-08-03T15:43:15.654Z,7.57
2018-08-03T15:45:44.706Z,7.43
2018-08-03T15:48:13.561Z,7.93
2018-08-03T15:50:42.491Z,7.73
2018-08-03T15:53:11.606Z,7.77
2018-08-03T15:55:40.499Z,8.00
2018-08-03T15:58:09.886Z,7.20
2018-08-03T16:00:38.693Z,7.53
2018-08-03T16:03:07.528Z,7.37
2018-08-03T16:05:36.323Z,7.90
2018-08-03T16:08:05.136Z,7.83
2018-08-03T16:10:33.961Z,8.47
2018-08-03T16:13:02.939Z,7.10
2018-08-03T16:15:31.721Z,7.30
2018-08-03T16:18:00.574Z,7.60
2018-08-03T16:20:29.762Z,7.77
2018-08-03T16:22:58.975Z,8.13
2018-08-03T16:25:28.341Z,8.10
2018-08-03T16:27:57.670Z,8.10
2018-08-03T16:30:26.539Z,7.67
2018-08-03T16:32:56.020Z,7.90
2018-08-03T16:35:25.216Z,7.67
2018-08-03T16:37:54.545Z,7.60
2018-08-03T16:40:23.434Z,7.97
2018-08-03T16:42:52.194Z,8.00
2018-08-03T16:45:20.989Z,7.97
2018-08-03T16:47:49.823Z,7.90
2018-08-03T16:50:18.609Z,8.53
2018-08-03T16:52:47.720Z,8.23
2018-08-03T16:55:16.672Z,7.93
2018-08-03T16:57:45.563Z,7.83
2018-08-03T17:00:17.841Z,8.73
2018-08-03T17:02:47.226Z,8.10
2018-08-03T17:05:29.815Z,7.97
2018-08-03T17:07:58.887Z,8.27
2018-08-03T17:10:27.754Z,8.20
2018-08-03T17:12:57.154Z,8.50
2018-08-03T17:15:26.100Z,7.70
2018-08-03T17:17:55.149Z,7.80
2018-08-03T17:20:24.141Z,8.40
2018-08-03T17:22:53.032Z,8.33
2018-08-03T17:25:21.872Z,8.33
2018-08-03T17:27:50.598Z,8.50
2018-08-03T17:30:20.368Z,8.57
2018-08-03T17:32:49.179Z,8.47
2018-08-03T17:35:18.042Z,8.30
2018-08-03T17:37:46.937Z,8.93
2018-08-03T17:40:15.705Z,7.97
2018-08-03T17:42:44.519Z,8.17
2018-08-03T17:45:13.484Z,8.57
2018-08-03T17:47:42.341Z,8.50
2018-08-03T17:50:11.191Z,8.50
2018-08-03T17:52:40.087Z,8.60
2018-08-03T17:55:08.863Z,8.27
2018-08-03T17:57:37.700Z,9.23
2018-08-03T18:00:06.908Z,11.60
2018-08-03T18:02:35.710Z,9.90
2018-08-03T18:05:05.028Z,10.73
2018-08-03T18:07:33.862Z,12.20
2018-08-03T18:10:02.735Z,12.70
2018-08-03T18:12:31.717Z,13.43
2018-08-03T18:15:00.586Z,12.57
2018-08-03T18:17:29.359Z,13.30
2018-08-03T18:19:58.107Z,11.03
2018-08-03T18:22:26.895Z,10.60
2018-08-03T18:24:55.667Z,11.17
2018-08-03T18:27:24.514Z,11.23
2018-08-03T18:29:53.377Z,11.73
2018-08-03T18:32:22.266Z,12.87
2018-08-03T18:34:51.112Z,12.00
2018-08-03T18:37:19.933Z,12.87
2018-08-03T18:39:48.745Z,11.97
2018-08-03T18:42:17.507Z,11.20
2018-08-03T18:44:46.267Z,10.63
2018-08-03T18:47:15.094Z,13.17
2018-08-03T18:49:44.075Z,12.30
2018-08-03T18:52:13.000Z,13.93
2018-08-03T18:54:41.839Z,13.40
2018-08-03T18:57:10.685Z,15.20
2018-08-03T18:59:39.516Z,16.23
2018-08-03T19:02:08.591Z,13.27
2018-08-03T19:04:37.395Z,12.30
2018-08-03T19:07:06.170Z,12.87
2018-08-03T19:09:34.934Z,13.07
2018-08-03T19:12:04.081Z,11.93
2018-08-03T19:14:32.867Z,11.77
2018-08-03T19:17:01.733Z,12.80
2018-08-03T19:19:30.693Z,13.30
2018-08-03T19:21:59.579Z,12.13
2018-08-03T19:24:28.575Z,12.60
2018-08-03T19:26:57.335Z,13.00
2018-08-03T19:29:26.099Z,14.83
2018-08-03T19:31:54.904Z,14.00
2018-08-03T19:34:23.802Z,17.83
2018-08-03T19:36:52.675Z,17.37
2018-08-03T19:39:21.671Z,15.27
2018-08-03T19:41:50.503Z,16.50
2018-08-03T19:44:19.241Z,15.93
2018-08-03T19:46:49.704Z,14.70
2018-08-03T19:49:18.564Z,18.23
2018-08-03T19:51:47.507Z,19.20
2018-08-03T19:54:16.361Z,17.40
2018-08-03T19:56:45.453Z,16.00
2018-08-03T19:59:14.294Z,16.70
2018-08-03T20:01:43.234Z,13.10
2018-08-03T20:04:12.398Z,13.50
2018-08-03T20:06:41.249Z,14.60
2018-08-03T20:09:11.965Z,12.40
2018-08-03T20:11:40.946Z,12.87
2018-08-03T20:14:09.646Z,12.13
2018-08-03T20:16:38.418Z,11.50
2018-08-03T20:19:07.216Z,12.87
2018-08-03T20:21:35.962Z,15.53
2018-08-03T20:24:05.510Z,15.50
2018-08-03T20:26:34.293Z,12.80
2018-08-03T20:29:03.049Z,13.57
2018-08-03T20:31:31.793Z,13.13
2018-08-03T20:34:00.628Z,11.20
2018-08-03T20:36:29.515Z,11.23
2018-08-03T20:38:58.347Z,11.50
2018-08-03T20:41:27.329Z,11.20
2018-08-03T20:43:56.238Z,11.07
2018-08-03T20:46:25.022Z,11.93
2018-08-03T20:48:53.749Z,11.53
2018-08-03T20:51:22.552Z,12.07
2018-08-03T20:53:51.306Z,12.17
2018-08-03T20:56:20.265Z,12.03
2018-08-03T20:58:49.025Z,11.83
2018-08-03T21:01:17.781Z,11.57
2018-08-03T21:03:46.557Z,11.83
2018-08-03T21:06:15.269Z,10.37
2018-08-03T21:08:44.010Z,11.63
2018-08-03T21:11:13.161Z,11.67
2018-08-03T21:13:41.972Z,11.13
2018-08-03T21:16:10.789Z,10.53
2018-08-03T21:18:39.529Z,10.23
2018-08-03T21:21:08.263Z,10.40
2018-08-03T21:23:37.065Z,9.70
2018-08-03T21:26:06.058Z,9.50
2018-08-03T21:28:34.864Z,9.80
2018-08-03T21:31:03.647Z,9.97
2018-08-03T21:33:32.422Z,10.13
2018-08-03T21:36:01.223Z,10.07
2018-08-03T21:38:30.003Z,9.33
2018-08-03T21:40:58.755Z,9.57
2018-08-03T21:43:27.527Z,9.67
2018-08-03T21:45:56.358Z,9.50
2018-08-03T21:48:25.121Z,9.40
2018-08-03T21:50:53.927Z,9.70
2018-08-03T21:53:22.660Z,9.30
2018-08-03T21:55:51.396Z,9.13
2018-08-03T21:58:20.199Z,9.67
2018-08-03T22:00:49.582Z,9.60
2018-08-03T22:03:18.361Z,9.37
2018-08-03T22:05:47.140Z,9.90
2018-08-03T22:08:15.997Z,10.77
2018-08-03T22:10:44.868Z,10.37
2018-08-03T22:13:13.663Z,10.23
2018-08-03T22:15:42.468Z,10.37
2018-08-03T22:18:12.886Z,11.63
2018-08-03T22:20:41.669Z,10.83
2018-08-03T22:23:10.675Z,11.00
2018-08-03T22:25:39.474Z,11.03
2018-08-03T22:28:08.311Z,11.10
2018-08-03T22:30:37.101Z,10.80
2018-08-03T22:33:05.934Z,10.53
2018-08-03T22:35:34.765Z,10.60
2018-08-03T22:38:03.545Z,10.97
2018-08-03T22:40:32.317Z,11.37
2018-08-03T22:43:01.309Z,10.70
2018-08-03T22:45:30.105Z,10.83
2018-08-03T22:47:59.057Z,9.77
2018-08-03T22:53:06.972Z,9.63
2018-08-03T22:55:35.863Z,9.07
2018-08-03T22:58:04.777Z,9.00
2018-08-03T23:00:34.262Z,8.77
2018-08-03T23:03:03.072Z,10.00
2018-08-03T23:05:31.887Z,9.13
2018-08-03T23:08:01.044Z,9.13
2018-08-03T23:10:29.801Z,9.63
2018-08-03T23:12:58.566Z,9.43
2018-08-03T23:15:27.378Z,9.47
2018-08-03T23:17:56.111Z,9.77
2018-08-03T23:20:25.111Z,9.40
2018-08-03T23:22:53.871Z,9.83
2018-08-03T23:25:22.773Z,9.27
2018-08-03T23:27:51.563Z,8.13
2018-08-03T23:30:20.338Z,9.30
2018-08-03T23:32:49.149Z,8.83
2018-08-03T23:35:17.909Z,8.90
2018-08-03T23:37:46.741Z,9.50
2018-08-03T23:40:15.479Z,8.63
2018-08-03T23:42:44.241Z,9.43
2018-08-03T23:45:12.985Z,8.27
2018-08-03T23:47:41.754Z,8.87
2018-08-03T23:50:16.313Z,8.47
2018-08-03T23:52:46.404Z,8.57
2018-08-03T23:55:15.394Z,8.87
2018-08-03T23:57:44.385Z,8.40
